Time;durP1;ratioP1;P1;durP2;ratioP2;P2;SDS_P1;SDS_P2;PMS_P1;PMS_P2;Temp;Humidity;BMP_temperature;BMP_pressure;BME280_temperature;BME280_humidity;BME280_pressure;Samples;Min_cycle;Max_cycle;Signal;HPM_P1;HPM_P2
2023/10/23 00:02:24;;;;;;;16.95;10.20;;;8.90;99.90;;;;;;5100768;28;20115;-80
2023/10/23 00:04:50;;;;;;;21.52;10.77;;;8.90;99.90;;;;;;5100626;28;20096;-79
2023/10/23 00:07:16;;;;;;;16.70;10.20;;;8.90;99.90;;;;;;5100746;28;20032;-79
2023/10/23 00:09:42;;;;;;;17.95;10.20;;;8.90;99.90;;;;;;5100122;28;20094;-81
2023/10/23 00:12:08;;;;;;;19.95;10.73;;;9.00;99.90;;;;;;5102166;28;20452;-76
2023/10/23 00:14:34;;;;;;;19.25;9.85;;;9.00;99.90;;;;;;5101491;28;20023;-78
2023/10/23 00:17:00;;;;;;;24.23;12.00;;;9.00;99.90;;;;;;5100597;28;20024;-79
2023/10/23 00:19:27;;;;;;;23.25;12.05;;;9.00;99.90;;;;;;5099530;28;20020;-79
2023/10/23 00:21:53;;;;;;;23.90;11.48;;;9.00;99.90;;;;;;5099837;28;20617;-80
2023/10/23 00:24:19;;;;;;;19.33;11.77;;;9.00;99.90;;;;;;5101384;28;20105;-79
2023/10/23 00:26:44;;;;;;;19.20;11.60;;;9.10;99.90;;;;;;5101514;28;20052;-82
2023/10/23 00:29:10;;;;;;;19.40;11.43;;;9.10;99.90;;;;;;5099675;28;20031;-79
2023/10/23 00:31:35;;;;;;;19.33;10.93;;;9.20;99.90;;;;;;5099920;28;20043;-80
2023/10/23 00:34:01;;;;;;;19.85;11.60;;;9.00;99.90;;;;;;5101631;28;20028;-79
2023/10/23 00:36:27;;;;;;;20.08;11.35;;;9.10;99.90;;;;;;5100233;28;20031;-80
2023/10/23 00:38:52;;;;;;;22.40;11.57;;;9.10;99.90;;;;;;5100301;28;20039;-78
2023/10/23 00:41:18;;;;;;;19.95;11.68;;;9.00;99.90;;;;;;5100389;28;20012;-78
2023/10/23 00:43:44;;;;;;;17.10;11.35;;;8.90;99.90;;;;;;5100041;28;20472;-80
2023/10/23 00:46:18;;;;;;;18.42;10.82;;;9.00;99.90;;;;;;5099221;28;20032;-82
2023/10/23 00:48:43;;;;;;;19.48;10.93;;;8.90;99.90;;;;;;5101119;28;20024;-82
2023/10/23 00:51:12;;;;;;;20.42;11.00;;;8.90;99.90;;;;;;5099500;28;20100;-82
2023/10/23 00:53:39;;;;;;;20.38;11.82;;;8.80;99.90;;;;;;5100145;28;20510;-83
2023/10/23 00:56:07;;;;;;;19.92;11.32;;;8.80;99.90;;;;;;5099660;28;20055;-81
2023/10/23 00:58:35;;;;;;;19.23;11.05;;;8.60;99.90;;;;;;5100645;28;20080;-82
2023/10/23 01:01:03;;;;;;;21.20;11.23;;;8.70;99.90;;;;;;5099711;28;20035;-79
2023/10/23 01:03:29;;;;;;;18.48;11.13;;;8.70;99.90;;;;;;5101218;28;20032;-80
2023/10/23 01:05:55;;;;;;;17.85;11.07;;;8.70;99.90;;;;;;5099721;28;20036;-79
2023/10/23 01:08:21;;;;;;;17.17;10.98;;;8.60;99.90;;;;;;5101691;28;20043;-82
2023/10/23 01:10:46;;;;;;;19.65;11.20;;;8.60;99.90;;;;;;5099235;28;20024;-81
2023/10/23 01:13:12;;;;;;;19.52;10.95;;;8.50;99.90;;;;;;5099742;28;20034;-81
2023/10/23 01:15:38;;;;;;;18.38;10.57;;;8.60;99.90;;;;;;5100616;28;20486;-79
2023/10/23 01:18:04;;;;;;;20.45;10.38;;;8.50;99.90;;;;;;5099344;28;20044;-78
2023/10/23 01:20:31;;;;;;;18.25;11.35;;;8.50;99.90;;;;;;5100755;28;20182;-77
2023/10/23 01:23:01;;;;;;;28.05;10.85;;;8.50;99.90;;;;;;5099204;28;20021;-79
2023/10/23 01:25:28;;;;;;;69.80;10.55;;;8.50;99.90;;;;;;5100013;28;20032;-80
2023/10/23 01:27:54;;;;;;;123.28;10.48;;;8.50;99.90;;;;;;5099277;28;20105;-81
2023/10/23 01:30:20;;;;;;;71.55;9.90;;;8.50;99.90;;;;;;5099503;28;20020;-80
2023/10/23 01:32:45;;;;;;;76.72;9.73;;;8.50;99.90;;;;;;5100281;28;20475;-80
2023/10/23 01:35:11;;;;;;;124.75;11.25;;;8.40;99.90;;;;;;5098600;28;20023;-78
2023/10/23 01:37:37;;;;;;;17.20;9.52;;;8.30;99.90;;;;;;5099096;28;20432;-81
2023/10/23 01:40:04;;;;;;;16.08;8.57;;;8.40;99.90;;;;;;5099146;28;20091;-79
2023/10/23 01:42:33;;;;;;;14.57;8.95;;;8.30;99.90;;;;;;5099435;28;20035;-80
2023/10/23 01:44:59;;;;;;;15.60;8.88;;;8.20;99.90;;;;;;5100500;28;20087;-81
2023/10/23 01:47:26;;;;;;;19.10;10.55;;;8.20;99.90;;;;;;5100289;28;20415;-77
2023/10/23 01:49:52;;;;;;;19.38;9.88;;;8.20;99.90;;;;;;5101048;28;20022;-81
2023/10/23 01:52:18;;;;;;;21.13;10.48;;;8.00;99.90;;;;;;5099537;28;20087;-80
2023/10/23 01:54:43;;;;;;;22.23;10.75;;;8.00;99.90;;;;;;5100674;28;20032;-79
2023/10/23 01:57:10;;;;;;;54.35;12.50;;;8.00;99.90;;;;;;5102084;28;20028;-77
2023/10/23 01:59:37;;;;;;;21.35;11.77;;;8.00;99.90;;;;;;5103889;28;20044;-79
2023/10/23 02:02:03;;;;;;;18.33;11.30;;;8.00;99.90;;;;;;5104552;28;20059;-79
2023/10/23 02:04:29;;;;;;;17.25;10.10;;;8.00;99.90;;;;;;5103328;28;20016;-81
2023/10/23 02:06:56;;;;;;;18.40;10.15;;;8.00;99.90;;;;;;5103204;28;20380;-80
2023/10/23 02:09:22;;;;;;;17.35;10.65;;;7.90;99.90;;;;;;5104839;28;20118;-80
2023/10/23 02:11:47;;;;;;;17.08;10.60;;;7.90;99.90;;;;;;5102572;28;20047;-80
2023/10/23 02:14:13;;;;;;;22.15;13.63;;;7.90;99.90;;;;;;5103392;28;20020;-83
2023/10/23 02:16:39;;;;;;;23.77;13.77;;;8.00;99.90;;;;;;5103226;28;20020;-81
2023/10/23 02:19:04;;;;;;;22.23;13.40;;;7.90;99.90;;;;;;5102878;28;20031;-81
2023/10/23 02:21:30;;;;;;;24.30;11.70;;;7.80;99.90;;;;;;5102609;28;20123;-80
2023/10/23 02:23:56;;;;;;;17.90;11.18;;;7.80;99.90;;;;;;5102982;28;20020;-80
2023/10/23 02:26:22;;;;;;;19.38;11.32;;;7.70;99.90;;;;;;5104402;28;20883;-80
2023/10/23 02:28:48;;;;;;;18.10;10.57;;;7.60;99.90;;;;;;5102950;28;20032;-81
2023/10/23 02:31:14;;;;;;;20.00;10.23;;;7.60;99.90;;;;;;5103212;28;20036;-80
2023/10/23 02:33:40;;;;;;;21.27;10.70;;;7.60;99.90;;;;;;5102418;28;20028;-79
2023/10/23 02:36:06;;;;;;;16.83;10.90;;;7.60;99.90;;;;;;5104235;28;20163;-80
2023/10/23 02:38:32;;;;;;;19.50;11.30;;;7.60;99.90;;;;;;5102514;28;20024;-79
2023/10/23 02:40:58;;;;;;;23.60;13.15;;;7.60;99.90;;;;;;5102548;28;20036;-79
2023/10/23 02:43:24;;;;;;;22.27;13.35;;;7.60;99.90;;;;;;5102504;28;20077;-81
2023/10/23 02:45:50;;;;;;;21.23;12.13;;;7.60;99.90;;;;;;5102695;28;20071;-82
2023/10/23 02:48:17;;;;;;;23.33;12.13;;;7.60;99.90;;;;;;5102381;28;20023;-79
2023/10/23 02:50:53;;;;;;;23.13;12.23;;;7.50;99.90;;;;;;5102629;28;20032;-82
2023/10/23 02:53:18;;;;;;;21.08;11.93;;;7.50;99.90;;;;;;5102560;28;20028;-81
2023/10/23 02:55:44;;;;;;;21.50;11.70;;;7.50;99.90;;;;;;5101905;28;20052;-81
2023/10/23 02:58:10;;;;;;;20.65;11.40;;;7.50;99.90;;;;;;5103780;28;20040;-80
2023/10/23 03:00:35;;;;;;;23.27;11.93;;;7.50;99.90;;;;;;5103072;28;20028;-81
2023/10/23 03:03:01;;;;;;;20.75;11.40;;;7.50;99.90;;;;;;5102107;28;21013;-80
2023/10/23 03:05:27;;;;;;;22.13;11.43;;;7.50;99.90;;;;;;5102520;28;20118;-80
2023/10/23 03:07:52;;;;;;;19.90;11.35;;;7.50;99.90;;;;;;5102012;28;20024;-80
2023/10/23 03:10:19;;;;;;;19.40;11.50;;;7.50;99.90;;;;;;5101869;28;20032;-80
2023/10/23 03:12:44;;;;;;;21.15;10.82;;;7.50;99.90;;;;;;5103339;28;20030;-80
2023/10/23 03:15:10;;;;;;;18.27;10.80;;;7.40;99.90;;;;;;5101888;28;20096;-82
2023/10/23 03:17:35;;;;;;;21.70;10.95;;;7.50;99.90;;;;;;5101641;28;20023;-80
2023/10/23 03:20:02;;;;;;;20.15;10.35;;;7.40;99.90;;;;;;5102023;28;20095;-81
2023/10/23 03:22:28;;;;;;;18.55;11.18;;;7.30;99.90;;;;;;5101470;28;20119;-78
2023/10/23 03:24:53;;;;;;;22.83;12.25;;;7.40;99.90;;;;;;5101927;28;20467;-80
2023/10/23 03:27:19;;;;;;;18.83;10.57;;;7.30;99.90;;;;;;5102789;28;20031;-80
2023/10/23 03:29:45;;;;;;;18.35;10.88;;;7.30;99.90;;;;;;5101442;28;20032;-82
2023/10/23 03:32:11;;;;;;;18.80;10.55;;;7.30;99.90;;;;;;5101408;28;20024;-81
2023/10/23 03:34:36;;;;;;;21.20;10.65;;;7.20;99.90;;;;;;5101699;28;20028;-80
2023/10/23 03:37:02;;;;;;;20.02;11.02;;;7.20;99.90;;;;;;5100538;28;20024;-81
2023/10/23 03:39:28;;;;;;;22.73;12.88;;;7.10;99.90;;;;;;5101732;28;20020;-83
2023/10/23 03:41:53;;;;;;;24.40;13.55;;;7.10;99.90;;;;;;5103103;28;20484;-84
2023/10/23 03:44:19;;;;;;;27.67;14.10;;;7.00;99.90;;;;;;5101871;28;20032;-83
2023/10/23 03:46:45;;;;;;;23.30;13.32;;;7.00;99.90;;;;;;5102920;28;20107;-83
2023/10/23 03:49:10;;;;;;;24.13;12.90;;;7.00;99.90;;;;;;5101150;28;20020;-81
2023/10/23 03:51:36;;;;;;;21.42;12.00;;;7.00;99.90;;;;;;5101445;28;20055;-83
2023/10/23 03:54:02;;;;;;;20.92;11.32;;;7.10;99.90;;;;;;5101596;28;20020;-81
2023/10/23 03:56:27;;;;;;;21.27;11.68;;;7.00;99.90;;;;;;5101265;28;20055;-81
2023/10/23 03:58:53;;;;;;;21.00;12.25;;;7.10;99.90;;;;;;5101396;28;20028;-81
2023/10/23 04:01:18;;;;;;;18.58;11.23;;;7.00;99.90;;;;;;5101456;28;20054;-84
2023/10/23 04:03:44;;;;;;;21.60;11.30;;;7.10;99.90;;;;;;5101584;28;21109;-82
2023/10/23 04:06:10;;;;;;;23.00;12.23;;;7.00;99.90;;;;;;5102441;28;20116;-83
2023/10/23 04:08:35;;;;;;;21.98;12.70;;;7.20;99.90;;;;;;5101124;28;20023;-80
2023/10/23 04:11:01;;;;;;;22.23;11.50;;;7.10;99.90;;;;;;5101189;28;20077;-81
2023/10/23 04:13:27;;;;;;;21.50;12.13;;;7.10;99.90;;;;;;5101055;28;20052;-83
2023/10/23 04:15:59;;;;;;;21.15;12.15;;;7.10;99.90;;;;;;5101350;28;20020;-83
2023/10/23 04:18:25;;;;;;;22.25;12.75;;;7.10;99.90;;;;;;5101154;28;20126;-82
2023/10/23 04:21:11;;;;;;;21.17;11.77;;;7.10;99.90;;;;;;5100220;28;20052;-83
2023/10/23 04:23:38;;;;;;;20.35;11.63;;;7.10;99.90;;;;;;5100842;28;20020;-81
2023/10/23 04:26:04;;;;;;;20.40;11.15;;;7.10;99.90;;;;;;5102128;28;20086;-84
2023/10/23 04:28:31;;;;;;;19.63;11.30;;;7.10;99.90;;;;;;5100782;28;20032;-82
2023/10/23 04:30:57;;;;;;;22.23;11.98;;;7.10;99.90;;;;;;5101261;28;20034;-82
2023/10/23 04:33:24;;;;;;;22.52;12.43;;;7.00;99.90;;;;;;5100952;28;20052;-82
2023/10/23 04:35:58;;;;;;;20.55;11.73;;;7.00;99.90;;;;;;5100488;28;20064;-80
2023/10/23 04:38:24;;;;;;;21.42;11.68;;;7.00;99.90;;;;;;5101050;28;20034;-80
2023/10/23 04:40:53;;;;;;;24.00;12.35;;;7.00;99.90;;;;;;5100260;28;20032;-81
2023/10/23 04:43:19;;;;;;;23.35;11.35;;;7.00;99.90;;;;;;5101869;28;20473;-81
2023/10/23 04:45:45;;;;;;;26.55;12.38;;;7.00;99.90;;;;;;5100694;28;20400;-82
2023/10/23 04:48:10;;;;;;;21.73;12.05;;;7.00;99.90;;;;;;5100375;28;20046;-78
2023/10/23 04:50:37;;;;;;;24.70;12.02;;;7.00;99.90;;;;;;5100582;28;20020;-80
2023/10/23 04:53:04;;;;;;;24.55;12.63;;;6.80;99.90;;;;;;5100189;28;20043;-82
2023/10/23 04:55:38;;;;;;;27.92;13.02;;;6.90;99.90;;;;;;5099978;28;20044;-82
2023/10/23 04:58:05;;;;;;;27.30;13.73;;;6.90;99.90;;;;;;5100433;28;20077;-81
2023/10/23 05:00:34;;;;;;;30.35;13.43;;;7.00;99.90;;;;;;5100312;28;20037;-84
2023/10/23 05:03:00;;;;;;;23.70;12.82;;;6.90;99.90;;;;;;5100176;28;20453;-82
2023/10/23 05:05:26;;;;;;;24.90;12.93;;;6.80;99.90;;;;;;5100251;28;20036;-83
2023/10/23 05:07:51;;;;;;;25.13;13.07;;;6.80;99.90;;;;;;5100800;28;20024;-82
2023/10/23 05:10:17;;;;;;;27.85;13.70;;;6.80;99.90;;;;;;5100363;28;20020;-83
2023/10/23 05:12:43;;;;;;;22.23;12.50;;;6.70;99.90;;;;;;5100424;28;20044;-84
2023/10/23 05:15:09;;;;;;;22.52;12.13;;;6.70;99.90;;;;;;5100594;28;20025;-81
2023/10/23 05:17:35;;;;;;;23.42;11.95;;;6.70;99.90;;;;;;5101486;28;20392;-83
2023/10/23 05:20:01;;;;;;;23.27;12.63;;;6.70;99.90;;;;;;5100577;28;20041;-81
2023/10/23 05:22:27;;;;;;;24.80;13.35;;;6.70;99.90;;;;;;5099348;28;20012;-76
2023/10/23 05:24:52;;;;;;;23.38;12.57;;;6.70;99.90;;;;;;5098195;28;20143;-76
2023/10/23 05:27:18;;;;;;;23.42;12.68;;;6.50;99.90;;;;;;5101218;28;20012;-76
2023/10/23 05:29:44;;;;;;;23.67;12.73;;;6.70;99.90;;;;;;5099503;28;20062;-76
2023/10/23 05:32:09;;;;;;;24.20;12.88;;;6.60;99.90;;;;;;5103939;28;20039;-77
2023/10/23 05:34:35;;;;;;;26.02;12.73;;;6.70;99.90;;;;;;5103879;28;20049;-77
2023/10/23 05:37:01;;;;;;;23.35;12.60;;;6.60;99.90;;;;;;5103535;28;20036;-77
2023/10/23 05:39:28;;;;;;;23.70;11.93;;;6.60;99.90;;;;;;5103917;28;20111;-77
2023/10/23 05:41:53;;;;;;;27.42;13.27;;;6.60;99.90;;;;;;5105047;28;20024;-78
2023/10/23 05:44:19;;;;;;;23.08;12.68;;;6.60;99.90;;;;;;5103433;28;20050;-76
2023/10/23 05:46:44;;;;;;;27.40;13.27;;;6.60;99.90;;;;;;5100908;28;20039;-77
2023/10/23 05:49:10;;;;;;;23.73;12.98;;;6.50;99.90;;;;;;5102974;28;20023;-75
2023/10/23 05:51:36;;;;;;;23.17;12.82;;;6.60;99.90;;;;;;5103724;28;20024;-76
2023/10/23 05:54:02;;;;;;;25.60;13.45;;;6.50;99.90;;;;;;5103552;28;20627;-76
2023/10/23 05:56:29;;;;;;;24.60;12.82;;;6.50;99.90;;;;;;5104588;28;20176;-76
2023/10/23 05:58:54;;;;;;;27.42;13.45;;;6.50;99.90;;;;;;5103399;28;20024;-77
2023/10/23 06:01:20;;;;;;;27.92;13.93;;;6.40;99.90;;;;;;5103501;28;20033;-77
2023/10/23 06:03:46;;;;;;;33.33;13.50;;;6.40;99.90;;;;;;5103011;28;20028;-77
2023/10/23 06:06:12;;;;;;;30.33;14.30;;;6.30;99.90;;;;;;5104457;28;20036;-76
2023/10/23 06:08:39;;;;;;;29.08;13.07;;;6.40;99.90;;;;;;5103401;28;20381;-76
2023/10/23 06:11:09;;;;;;;28.88;13.80;;;6.20;99.90;;;;;;5103921;28;20027;-76
2023/10/23 06:13:35;;;;;;;54.03;18.25;;;6.20;99.90;;;;;;5102223;28;20032;-77
2023/10/23 06:16:04;;;;;;;93.18;14.32;;;6.20;99.90;;;;;;5101617;28;20027;-76
2023/10/23 06:18:37;;;;;;;25.63;12.23;;;6.20;99.90;;;;;;5103473;28;20039;-78
2023/10/23 06:21:05;;;;;;;77.40;11.67;;;6.20;99.90;;;;;;5103510;28;20028;-77
2023/10/23 06:23:39;;;;;;;34.58;9.48;;;6.20;99.90;;;;;;5102562;28;20044;-77
2023/10/23 06:26:06;;;;;;;36.45;9.60;;;6.20;99.90;;;;;;5102232;28;20493;-75
2023/10/23 06:28:33;;;;;;;45.13;9.35;;;6.20;99.90;;;;;;5102896;28;20024;-77
2023/10/23 06:31:10;;;;;;;25.88;9.27;;;6.20;99.90;;;;;;5101238;28;20024;-76
2023/10/23 06:33:38;;;;;;;49.40;8.27;;;6.10;99.90;;;;;;5102754;28;20036;-76
2023/10/23 06:36:05;;;;;;;76.13;9.00;;;6.10;99.90;;;;;;5102833;28;20031;-77
2023/10/23 06:38:31;;;;;;;70.05;8.88;;;6.10;99.90;;;;;;5102755;28;20085;-75
2023/10/23 06:41:05;;;;;;;31.05;9.05;;;6.10;99.90;;;;;;5103027;28;20020;-77
2023/10/23 06:43:31;;;;;;;73.60;9.68;;;6.10;99.90;;;;;;5102839;28;20084;-77
2023/10/23 06:45:57;;;;;;;53.78;9.75;;;6.10;99.90;;;;;;5102629;28;20047;-78
2023/10/23 06:48:23;;;;;;;43.05;10.15;;;6.10;99.90;;;;;;5103090;28;20069;-78
2023/10/23 06:50:48;;;;;;;162.10;11.68;;;6.10;99.90;;;;;;5102976;28;20024;-78
2023/10/23 06:53:14;;;;;;;124.25;11.48;;;6.10;99.90;;;;;;5102086;28;20018;-76
2023/10/23 06:55:51;;;;;;;50.38;10.55;;;6.10;99.90;;;;;;5102552;28;20048;-76
2023/10/23 06:58:21;;;;;;;42.35;10.32;;;6.20;99.90;;;;;;5102512;28;20085;-75
2023/10/23 07:00:47;;;;;;;22.38;9.95;;;6.20;99.90;;;;;;5102191;28;20020;-77
2023/10/23 07:03:13;;;;;;;85.18;11.23;;;6.10;99.90;;;;;;5102593;28;20054;-76
2023/10/23 07:05:40;;;;;;;169.13;11.82;;;6.20;99.90;;;;;;5101672;28;20031;-77
2023/10/23 07:08:05;;;;;;;97.75;11.57;;;6.20;99.90;;;;;;5102112;28;20038;-77
2023/10/23 07:10:40;;;;;;;82.07;11.65;;;6.30;99.90;;;;;;5102403;28;20106;-76
2023/10/23 07:13:06;;;;;;;32.70;9.82;;;6.40;99.90;;;;;;5102163;28;20493;-76
2023/10/23 07:15:35;;;;;;;38.95;10.27;;;6.40;99.90;;;;;;5103521;28;20021;-78
2023/10/23 07:18:02;;;;;;;41.65;10.55;;;6.50;99.90;;;;;;5102120;28;20024;-76
2023/10/23 07:20:27;;;;;;;41.72;11.00;;;6.50;99.90;;;;;;5101960;28;20020;-77
2023/10/23 07:22:53;;;;;;;52.95;11.00;;;6.50;99.90;;;;;;5102256;28;20043;-76
2023/10/23 07:25:19;;;;;;;19.63;9.98;;;6.60;99.90;;;;;;5102284;28;20032;-77
2023/10/23 07:27:44;;;;;;;52.63;10.95;;;6.60;99.90;;;;;;5101842;28;20083;-77
2023/10/23 07:30:11;;;;;;;83.22;11.38;;;6.60;99.90;;;;;;5103500;28;20155;-77
2023/10/23 07:32:36;;;;;;;59.15;10.82;;;6.70;99.90;;;;;;5102100;28;20024;-77
2023/10/23 07:35:08;;;;;;;16.65;9.70;;;6.80;99.90;;;;;;5101314;28;20058;-76
2023/10/23 07:37:33;;;;;;;43.60;10.93;;;6.80;99.90;;;;;;5101666;28;20024;-77
2023/10/23 07:40:04;;;;;;;53.60;11.25;;;6.90;99.90;;;;;;5102696;28;20089;-75
2023/10/23 07:42:30;;;;;;;55.92;11.20;;;6.90;99.90;;;;;;5102468;28;20024;-75
2023/10/23 07:44:56;;;;;;;37.95;11.10;;;7.00;99.90;;;;;;5101594;28;20094;-75
2023/10/23 07:47:21;;;;;;;29.27;11.90;;;7.10;99.90;;;;;;5102514;28;20035;-75
2023/10/23 07:49:47;;;;;;;43.15;10.70;;;7.20;99.90;;;;;;5100620;28;20020;-75
2023/10/23 07:52:12;;;;;;;20.08;11.05;;;7.20;99.90;;;;;;5100338;28;20036;-76
2023/10/23 07:54:38;;;;;;;25.08;10.45;;;7.30;99.90;;;;;;5101665;28;20043;-76
2023/10/23 07:57:04;;;;;;;29.02;11.45;;;7.40;99.90;;;;;;5102574;28;20024;-75
2023/10/23 07:59:33;;;;;;;29.73;11.45;;;7.50;99.90;;;;;;5101415;28;20564;-78
2023/10/23 08:01:59;;;;;;;31.05;10.15;;;7.50;99.90;;;;;;5101708;28;20051;-75
2023/10/23 08:04:28;;;;;;;22.67;10.30;;;7.60;99.90;;;;;;5099942;28;20012;-80
2023/10/23 08:06:56;;;;;;;49.35;10.75;;;7.70;99.90;;;;;;5102130;28;20354;-76
2023/10/23 08:09:22;;;;;;;19.15;9.82;;;7.70;99.90;;;;;;5098221;28;20050;-77
2023/10/23 08:11:48;;;;;;;20.65;9.73;;;7.80;99.90;;;;;;5094918;28;20038;-77
2023/10/23 08:14:13;;;;;;;36.63;9.65;;;7.90;99.90;;;;;;5101540;28;20055;-75
2023/10/23 08:16:39;;;;;;;53.75;11.52;;;7.90;99.90;;;;;;5099972;28;20024;-75
2023/10/23 08:19:04;;;;;;;62.35;10.43;;;7.90;99.90;;;;;;5099654;28;20111;-78
2023/10/23 08:21:30;;;;;;;71.20;10.80;;;7.90;99.90;;;;;;5100058;28;20050;-77
2023/10/23 08:23:56;;;;;;;46.65;10.85;;;7.90;99.90;;;;;;5101627;28;20039;-77
2023/10/23 08:26:22;;;;;;;187.55;14.15;;;7.90;99.90;;;;;;5096241;28;20036;-78
2023/10/23 08:28:49;;;;;;;100.93;12.20;;;7.90;99.90;;;;;;5097495;28;20560;-79
2023/10/23 08:31:15;;;;;;;92.07;12.98;;;7.90;99.90;;;;;;5102345;28;20024;-76
2023/10/23 08:33:41;;;;;;;230.57;17.38;;;7.90;99.90;;;;;;5100322;28;20078;-75
2023/10/23 08:36:07;;;;;;;200.45;15.07;;;7.90;99.90;;;;;;5098089;28;20544;-76
2023/10/23 08:38:33;;;;;;;83.63;12.18;;;7.80;99.90;;;;;;5101458;28;20031;-76
2023/10/23 08:41:01;;;;;;;71.82;14.30;;;7.90;99.90;;;;;;5100236;28;20035;-74
2023/10/23 08:43:27;;;;;;;160.88;15.98;;;7.90;99.90;;;;;;5101800;28;20020;-76
2023/10/23 08:45:54;;;;;;;144.45;15.57;;;7.90;99.90;;;;;;5097844;28;20047;-78
2023/10/23 08:48:21;;;;;;;58.58;14.55;;;8.10;99.90;;;;;;5101728;28;20032;-77
2023/10/23 08:50:48;;;;;;;201.05;18.98;;;8.10;99.90;;;;;;5101352;28;20050;-77
2023/10/23 08:53:15;;;;;;;119.18;17.38;;;8.00;99.90;;;;;;5101198;28;20425;-75
2023/10/23 08:55:42;;;;;;;167.02;19.42;;;8.10;99.90;;;;;;5100902;28;20058;-74
2023/10/23 08:58:12;;;;;;;126.28;19.23;;;8.10;99.90;;;;;;5100112;28;20042;-76
2023/10/23 09:00:38;;;;;;;167.82;21.10;;;8.20;99.90;;;;;;5099624;28;20048;-75
2023/10/23 09:03:04;;;;;;;103.60;20.80;;;8.20;99.90;;;;;;5100017;28;20036;-73
2023/10/23 09:05:30;;;;;;;226.10;24.15;;;8.20;99.90;;;;;;5100510;28;20070;-74
2023/10/23 09:07:56;;;;;;;217.90;21.80;;;8.20;99.90;;;;;;5100041;28;20021;-76
2023/10/23 09:10:22;;;;;;;83.50;20.75;;;8.20;99.90;;;;;;5101200;28;20027;-75
2023/10/23 09:12:56;;;;;;;112.80;21.30;;;8.30;99.90;;;;;;5099974;28;20078;-74
2023/10/23 09:15:23;;;;;;;337.50;27.60;;;8.40;99.90;;;;;;5098487;28;20027;-74
2023/10/23 09:17:49;;;;;;;309.73;26.30;;;8.40;99.90;;;;;;5101343;28;20066;-75
2023/10/23 09:20:18;;;;;;;242.95;26.00;;;8.40;99.90;;;;;;5099810;28;20024;-75
2023/10/23 09:22:48;;;;;;;370.35;30.33;;;8.50;99.90;;;;;;5100723;28;20149;-75
2023/10/23 09:25:21;;;;;;;293.08;29.95;;;8.50;99.90;;;;;;5098208;28;20051;-74
2023/10/23 09:27:46;;;;;;;326.85;30.95;;;8.60;99.90;;;;;;5098623;28;20021;-74
2023/10/23 09:30:15;;;;;;;342.77;29.52;;;8.60;99.90;;;;;;5099105;28;20038;-76
2023/10/23 09:32:40;;;;;;;380.20;31.67;;;8.60;99.90;;;;;;5099968;28;20134;-76
2023/10/23 09:35:08;;;;;;;354.48;33.60;;;8.60;99.90;;;;;;5099498;28;20043;-74
2023/10/23 09:37:35;;;;;;;300.98;29.92;;;8.70;99.90;;;;;;5098948;28;20028;-74
2023/10/23 09:40:08;;;;;;;345.65;33.00;;;8.70;99.90;;;;;;5099413;28;20041;-76
2023/10/23 09:42:35;;;;;;;274.37;32.17;;;8.80;99.90;;;;;;5100798;28;20055;-73
2023/10/23 09:45:02;;;;;;;193.35;30.63;;;8.90;99.90;;;;;;5099589;28;20035;-74
2023/10/23 09:47:35;;;;;;;225.32;30.50;;;8.90;99.90;;;;;;5100241;28;20040;-81
2023/10/23 09:50:04;;;;;;;332.33;35.55;;;8.90;99.90;;;;;;5101673;28;20024;-75
2023/10/23 09:52:35;;;;;;;311.20;35.08;;;9.00;99.90;;;;;;5099578;28;20020;-75
2023/10/23 09:55:05;;;;;;;239.63;35.03;;;9.10;99.90;;;;;;5099684;28;20047;-75
2023/10/23 09:57:35;;;;;;;138.18;32.55;;;9.10;99.90;;;;;;5100975;28;20027;-74
2023/10/23 10:00:05;;;;;;;169.65;32.58;;;9.10;99.90;;;;;;5100431;28;20408;-77
2023/10/23 10:02:34;;;;;;;169.65;31.75;;;9.10;99.90;;;;;;5099364;28;20051;-73
2023/10/23 10:05:09;;;;;;;309.73;34.85;;;9.20;99.90;;;;;;5100705;28;20114;-73
2023/10/23 10:07:57;;;;;;;168.98;32.08;;;9.20;99.90;;;;;;5099399;28;20032;-74
2023/10/23 10:10:25;;;;;;;178.25;32.03;;;9.30;99.90;;;;;;5099993;28;20036;-74
2023/10/23 10:12:55;;;;;;;107.43;31.92;;;9.30;99.90;;;;;;5101317;28;20058;-74
2023/10/23 10:15:25;;;;;;;137.48;32.17;;;9.30;99.90;;;;;;5099790;28;20032;-74
2023/10/23 10:17:51;;;;;;;122.53;32.75;;;9.30;99.90;;;;;;5100431;28;20024;-73
2023/10/23 10:20:24;;;;;;;76.80;31.50;;;9.40;99.90;;;;;;5102711;28;20061;-74
2023/10/23 10:22:56;;;;;;;230.52;37.65;;;9.40;99.90;;;;;;5104134;28;20542;-74
2023/10/23 10:25:24;;;;;;;79.35;33.45;;;9.50;99.90;;;;;;5102668;28;20032;-73
2023/10/23 10:28:03;;;;;;;76.05;32.33;;;9.50;99.90;;;;;;5102527;28;20079;-74
2023/10/23 10:30:51;;;;;;;114.57;36.78;;;9.60;99.90;;;;;;5103885;28;20039;-75
2023/10/23 10:33:29;;;;;;;81.75;35.13;;;9.60;99.90;;;;;;5102596;28;20027;-74
2023/10/23 10:36:00;;;;;;;73.38;33.22;;;9.70;99.90;;;;;;5103757;28;20032;-76
2023/10/23 10:38:29;;;;;;;99.35;34.17;;;9.70;99.90;;;;;;5103992;28;20024;-76
2023/10/23 10:41:16;;;;;;;73.97;33.88;;;9.70;99.90;;;;;;5103319;28;20028;-76
2023/10/23 10:43:45;;;;;;;77.18;34.88;;;9.70;99.90;;;;;;5101930;28;20032;-74
2023/10/23 10:46:28;;;;;;;79.00;36.65;;;9.80;99.90;;;;;;5103391;28;20044;-76
2023/10/23 10:48:55;;;;;;;78.38;36.28;;;9.80;99.90;;;;;;5103910;28;20384;-75
2023/10/23 10:51:26;;;;;;;80.72;35.67;;;9.80;99.90;;;;;;5102131;28;20099;-75
2023/10/23 10:54:03;;;;;;;76.45;35.35;;;9.90;99.90;;;;;;5102402;28;20036;-75
2023/10/23 10:56:30;;;;;;;99.95;35.50;;;10.00;99.90;;;;;;5103076;28;20044;-76
2023/10/23 10:59:00;;;;;;;78.72;34.28;;;10.00;99.90;;;;;;5102562;28;20031;-75
2023/10/23 11:01:25;;;;;;;72.45;34.53;;;10.00;99.90;;;;;;5103597;28;20031;-76
2023/10/23 11:03:51;;;;;;;75.28;35.92;;;10.00;99.90;;;;;;5102100;28;20115;-75
2023/10/23 11:06:17;;;;;;;68.38;32.63;;;10.10;99.90;;;;;;5103699;28;20039;-75
2023/10/23 11:08:43;;;;;;;73.25;35.83;;;10.10;99.90;;;;;;5103210;28;20028;-74
2023/10/23 11:11:12;;;;;;;77.00;34.95;;;10.20;99.90;;;;;;5101673;28;20024;-72
2023/10/23 11:13:40;;;;;;;72.47;34.25;;;10.20;99.90;;;;;;5103268;28;20032;-73
2023/10/23 11:16:06;;;;;;;71.82;33.63;;;10.30;99.90;;;;;;5101076;28;20092;-75
2023/10/23 11:18:32;;;;;;;69.65;34.20;;;10.40;99.90;;;;;;5102859;28;20048;-74
2023/10/23 11:21:00;;;;;;;67.35;34.58;;;10.60;99.90;;;;;;5100056;28;20100;-74
2023/10/23 11:23:29;;;;;;;73.95;36.30;;;10.80;99.90;;;;;;5102985;28;20485;-76
2023/10/23 11:25:55;;;;;;;76.55;36.22;;;10.80;99.90;;;;;;5097916;28;20142;-75
2023/10/23 11:28:23;;;;;;;71.40;34.25;;;10.80;99.90;;;;;;5099382;28;20027;-76
2023/10/23 11:31:00;;;;;;;71.65;34.00;;;10.80;99.90;;;;;;5098744;28;20032;-75
2023/10/23 11:33:27;;;;;;;61.70;30.63;;;10.70;99.90;;;;;;5097613;28;20035;-74
2023/10/23 11:35:53;;;;;;;63.35;31.25;;;10.90;99.90;;;;;;5101607;28;20040;-74
2023/10/23 11:38:20;;;;;;;58.67;29.50;;;10.80;99.90;;;;;;5101131;28;20042;-74
2023/10/23 11:40:47;;;;;;;58.47;29.50;;;11.00;99.90;;;;;;5100449;28;20023;-73
2023/10/23 11:43:15;;;;;;;51.65;28.08;;;11.10;99.90;;;;;;5100442;28;20448;-75
2023/10/23 11:45:42;;;;;;;57.33;29.58;;;11.20;99.90;;;;;;5100295;28;20125;-75
2023/10/23 11:48:08;;;;;;;51.65;26.80;;;11.30;99.90;;;;;;5102493;28;20491;-76
2023/10/23 11:50:37;;;;;;;51.78;28.95;;;11.30;99.90;;;;;;5102627;28;20028;-75
2023/10/23 11:53:06;;;;;;;56.17;28.23;;;11.40;99.90;;;;;;5102632;28;20024;-74
2023/10/23 11:55:33;;;;;;;54.05;27.67;;;11.40;99.90;;;;;;5101364;28;20048;-74
2023/10/23 11:57:59;;;;;;;60.65;29.73;;;11.40;99.90;;;;;;5102135;28;20081;-74
2023/10/23 12:00:25;;;;;;;56.67;29.10;;;11.30;99.90;;;;;;5100653;28;20594;-75
2023/10/23 12:02:51;;;;;;;62.20;29.77;;;11.30;99.90;;;;;;5100831;28;20028;-74
2023/10/23 12:05:18;;;;;;;56.08;29.08;;;11.30;99.90;;;;;;5101999;28;20118;-75
2023/10/23 12:07:55;;;;;;;53.70;28.10;;;11.30;99.90;;;;;;5100674;28;20095;-75
2023/10/23 12:10:33;;;;;;;60.80;29.25;;;11.40;99.90;;;;;;5100894;28;20042;-76
2023/10/23 12:12:59;;;;;;;61.25;30.35;;;11.50;99.90;;;;;;5101976;28;20050;-74
2023/10/23 12:15:24;;;;;;;57.35;28.83;;;11.60;99.90;;;;;;5100460;28;20020;-76
2023/10/23 12:17:51;;;;;;;63.60;30.67;;;11.80;99.90;;;;;;5100771;28;20036;-76
2023/10/23 12:20:16;;;;;;;59.28;30.92;;;11.80;99.90;;;;;;5102312;28;20434;-76
2023/10/23 12:22:44;;;;;;;61.95;31.80;;;11.80;99.90;;;;;;5100596;28;20020;-76
2023/10/23 12:25:11;;;;;;;62.40;30.33;;;11.90;99.90;;;;;;5101952;28;20078;-75
2023/10/23 12:27:38;;;;;;;58.45;30.50;;;11.90;99.90;;;;;;5102122;28;20091;-75
2023/10/23 12:30:05;;;;;;;58.50;29.98;;;11.80;99.90;;;;;;5099538;28;20024;-77
2023/10/23 12:32:32;;;;;;;55.22;29.00;;;11.90;99.90;;;;;;5100272;28;20054;-75
2023/10/23 12:34:57;;;;;;;59.65;29.52;;;11.90;99.90;;;;;;5102278;28;20020;-74
2023/10/23 12:37:27;;;;;;;55.63;28.75;;;11.90;99.90;;;;;;5101963;28;20027;-74